Terminal Aerodrome Forecast
Issued by NWS Sioux Falls, SD

Home | Current Version | Previous Version | Text Only | Print | Product List | Glossary On
Versions: 1 2 3 4 5 6 7 8 9 10 11 12 13 14 15 16 17 18 19 20 21 22
577
FTUS43 KFSD 031555 AAB
TAFFSD
TAF AMD
KFSD 031555Z 0316/0412 17011KT P6SM BKN100
     FM031900 18013KT P6SM -RA OVC060
     FM032100 18014KT 5SM -RASN OVC018
     FM040000 17012KT P6SM BKN015
     FM041000 23008KT P6SM BKN025=

USA.gov is the U.S. government's official web portal to all federal, state and local government web resources and services.